This is the latest recevied weather packets stored in our database for station/object EA6AMI-5. If no packets are shown the sender has not sent any weather packets the latest 10 day(s).
| Time | Temp. | Humidity | Pressure | Rain* | Wind** | Luminosity | Snow |
|---|---|---|---|---|---|---|---|
| 1778093643 | 16.67° C | 82% | 1012.4 hPa | 0 mm | - | 1 W/m² | - |
| 1778093104 | 16.67° C | 81% | 1012.1 hPa | 0 mm | - | 3 W/m² | - |
| 1778092564 | 16.67° C | 80% | 1012.2 hPa | 0 mm | - | 7 W/m² | - |
| 1778092024 | 17.22° C | 80% | 1012.3 hPa | 0 mm | - | 13 W/m² | - |
| 1778091483 | 17.78° C | 78% | 1012.1 hPa | 0 mm | - | 19 W/m² | - |
| 1778090943 | 17.78° C | 78% | 1012.2 hPa | 0 mm | - | 31 W/m² | - |
| 1778090404 | 17.78° C | 74% | 1011.9 hPa | 0 mm | - | 30 W/m² | - |
| 1778090044 | 17.78° C | 74% | 1012 hPa | 0 mm | - | 36 W/m² | - |
| 1778089503 | 18.33° C | 73% | 1011.9 hPa | 0 mm | - | 34 W/m² | - |
| 1778088963 | 18.33° C | 75% | 1012.1 hPa | 0 mm | - | 66 W/m² | - |
| 1778088424 | 18.33° C | 77% | 1012 hPa | 0 mm | - | 78 W/m² | - |
| 1778087883 | 18.33° C | 76% | 1011.9 hPa | 0 mm | - | 102 W/m² | - |
| 1778087344 | 17.78° C | 77% | 1011.9 hPa | 0 mm | - | 118 W/m² | - |
| 1778086803 | 17.78° C | 80% | 1011.8 hPa | 0 mm | - | 167 W/m² | - |
| 1778086443 | 17.78° C | 80% | 1012 hPa | 0 mm | - | 155 W/m² | - |
| 1778085904 | 17.78° C | 79% | 1012.1 hPa | 0 mm | - | 126 W/m² | - |
| 1778085364 | 18.33° C | 78% | 1012 hPa | 0 mm | - | 108 W/m² | - |
| 1778084823 | 17.78° C | 75% | 1011.8 hPa | 0 mm | - | 164 W/m² | - |
| 1778084283 | 17.22° C | 79% | 1011.8 hPa | 0 mm | - | 210 W/m² | - |
| 1778083744 | 17.22° C | 80% | 1011.5 hPa | 0 mm | - | 202 W/m² | - |
| 1778083203 | 16.11° C | 77% | 1011.8 hPa | 0.25 mm | - | 266 W/m² | - |
| 1778082844 | 16.67° C | 78% | 1011.9 hPa | 0.76 mm | - | 145 W/m² | - |
| 1778082304 | 16.67° C | 78% | 1012.1 hPa | 1.02 mm | - | 113 W/m² | - |
| 1778081763 | 16.11° C | 74% | 1012.1 hPa | 1.02 mm | - | 97 W/m² | - |
| 1778081223 | 16.11° C | 80% | 1012.2 hPa | 1.27 mm | - | 156 W/m² | - |
* Rain latest hour (hover to see other rain measurements)
** Current wind speed in m/s (hover to see current wind gust speed)